createdAt,value
2023-02-28T00:00:53.274Z,2.03
2023-02-28T00:03:19.402Z,2.33
2023-02-28T00:05:45.522Z,1.88
2023-02-28T00:08:13.717Z,1.85
2023-02-28T00:10:39.859Z,2.00
2023-02-28T00:13:07.171Z,2.30
2023-02-28T00:15:33.589Z,2.08
2023-02-28T00:17:59.648Z,1.90
2023-02-28T00:20:26.376Z,1.92
2023-02-28T00:22:53.417Z,1.90
2023-02-28T00:25:22.059Z,2.17
2023-02-28T00:27:48.696Z,2.08
2023-02-28T00:30:20.548Z,2.28
2023-02-28T00:32:46.717Z,1.95
2023-02-28T00:35:13.403Z,2.00
2023-02-28T00:37:39.853Z,1.98
2023-02-28T00:40:07.106Z,2.42
2023-02-28T00:42:35.812Z,2.22
2023-02-28T00:45:04.068Z,2.40
2023-02-28T00:47:30.275Z,2.17
2023-02-28T00:49:56.502Z,1.92
2023-02-28T00:52:22.602Z,2.15
2023-02-28T00:54:48.689Z,2.30
2023-02-28T00:57:14.787Z,2.15
2023-02-28T00:59:40.856Z,2.20
2023-02-28T01:02:06.942Z,2.60
2023-02-28T01:04:33.217Z,2.10
2023-02-28T01:06:59.472Z,2.00
2023-02-28T01:09:26.163Z,2.25
2023-02-28T01:11:52.238Z,2.28
2023-02-28T01:14:18.864Z,2.20
2023-02-28T01:16:45.388Z,2.20
2023-02-28T01:19:11.694Z,2.20
2023-02-28T01:21:37.764Z,2.20
2023-02-28T01:24:04.714Z,2.10
2023-02-28T01:26:30.917Z,2.05
2023-02-28T01:28:57.500Z,2.42
2023-02-28T01:31:23.874Z,2.20
2023-02-28T01:33:54.509Z,2.30
2023-02-28T01:36:22.958Z,2.22
2023-02-28T01:38:49.590Z,2.42
2023-02-28T01:41:19.522Z,2.13
2023-02-28T01:43:45.527Z,2.20
2023-02-28T01:46:12.825Z,2.35
2023-02-28T01:48:44.965Z,2.05
2023-02-28T01:51:20.102Z,2.10
2023-02-28T01:53:51.643Z,2.35
2023-02-28T01:56:24.291Z,2.25
2023-02-28T01:58:51.864Z,2.10
2023-02-28T02:01:21.762Z,2.22
2023-02-28T02:03:55.523Z,2.38
2023-02-28T02:06:29.651Z,2.08
2023-02-28T02:08:56.085Z,2.38
2023-02-28T02:11:25.141Z,2.58
2023-02-28T02:14:00.121Z,2.42
2023-02-28T02:16:54.940Z,2.15
2023-02-28T02:19:29.600Z,2.47
2023-02-28T02:22:21.626Z,2.08
2023-02-28T02:24:47.843Z,2.58
2023-02-28T02:27:37.698Z,2.30
2023-02-28T02:30:54.062Z,2.40
2023-02-28T02:33:32.419Z,2.40
2023-02-28T02:36:17.076Z,2.22
2023-02-28T02:39:07.141Z,2.17
2023-02-28T02:41:46.580Z,2.20
2023-02-28T02:44:31.864Z,2.10
2023-02-28T02:47:07.136Z,2.33
2023-02-28T02:49:36.031Z,2.50
2023-02-28T02:52:06.801Z,1.90
2023-02-28T02:54:38.647Z,2.40
2023-02-28T02:57:08.963Z,2.17
2023-02-28T02:59:56.470Z,2.42
2023-02-28T03:02:23.671Z,2.20
2023-02-28T03:04:53.934Z,2.38
2023-02-28T03:07:20.168Z,2.50
2023-02-28T03:09:53.321Z,2.42
2023-02-28T03:12:39.138Z,2.40
2023-02-28T03:15:27.172Z,2.65
2023-02-28T03:18:10.520Z,2.05
2023-02-28T03:21:00.449Z,2.50
2023-02-28T03:23:42.686Z,2.35
2023-02-28T03:26:19.361Z,2.42
2023-02-28T03:28:55.034Z,2.33
2023-02-28T03:31:38.906Z,2.30
2023-02-28T03:34:24.409Z,2.20
2023-02-28T03:36:57.117Z,1.95
2023-02-28T03:39:31.432Z,2.03
2023-02-28T03:42:06.029Z,2.08
2023-02-28T03:44:40.939Z,2.35
2023-02-28T03:47:20.017Z,2.50
2023-02-28T03:49:54.237Z,2.63
2023-02-28T03:52:26.738Z,2.10
2023-02-28T03:54:57.412Z,2.33
2023-02-28T03:57:41.887Z,2.25
2023-02-28T04:00:19.169Z,2.22
2023-02-28T04:02:45.421Z,2.13
2023-02-28T04:05:11.768Z,1.95
2023-02-28T04:07:38.200Z,2.30
2023-02-28T04:10:05.434Z,2.22
2023-02-28T04:12:31.516Z,2.05
2023-02-28T04:14:57.580Z,2.33
2023-02-28T04:17:23.637Z,2.33
2023-02-28T04:19:50.188Z,2.35
2023-02-28T04:22:18.058Z,2.40
2023-02-28T04:24:44.164Z,2.20
2023-02-28T04:27:10.445Z,2.40
2023-02-28T04:29:36.620Z,1.90
2023-02-28T04:32:03.612Z,2.42
2023-02-28T04:34:33.239Z,2.10
2023-02-28T04:37:12.349Z,2.28
2023-02-28T04:39:39.687Z,2.38
2023-02-28T04:42:06.304Z,1.92
2023-02-28T04:44:32.373Z,2.00
2023-02-28T04:46:58.433Z,2.15
2023-02-28T04:49:24.577Z,2.20
2023-02-28T04:51:50.635Z,2.00
2023-02-28T04:54:18.324Z,2.40
2023-02-28T04:56:44.368Z,2.30
2023-02-28T04:59:10.423Z,2.20
2023-02-28T05:01:36.747Z,2.10
2023-02-28T05:04:04.982Z,2.50
2023-02-28T05:06:32.895Z,2.00
2023-02-28T05:08:59.736Z,2.10
2023-02-28T05:11:29.971Z,1.95
2023-02-28T05:13:56.480Z,2.03
2023-02-28T05:16:22.715Z,2.10
2023-02-28T05:18:48.906Z,2.30
2023-02-28T05:21:28.652Z,1.95
2023-02-28T05:23:57.024Z,2.00
2023-02-28T05:26:23.483Z,1.85
2023-02-28T05:28:49.668Z,2.15
2023-02-28T05:31:15.820Z,2.20
2023-02-28T05:33:41.951Z,2.20
2023-02-28T05:36:08.363Z,2.20
2023-02-28T05:38:34.482Z,1.88
2023-02-28T05:41:00.536Z,2.13
2023-02-28T05:43:26.616Z,1.80
2023-02-28T05:45:52.730Z,1.92
2023-02-28T05:48:18.828Z,2.00
2023-02-28T05:50:46.400Z,2.00
2023-02-28T05:53:12.575Z,2.03
2023-02-28T05:55:38.694Z,2.15
2023-02-28T05:58:04.755Z,2.00
2023-02-28T06:00:30.812Z,1.73
2023-02-28T06:03:00.240Z,1.23
2023-02-28T06:05:26.574Z,1.45
2023-02-28T06:07:52.620Z,1.67
2023-02-28T06:10:19.888Z,1.75
2023-02-28T06:12:46.202Z,1.60
2023-02-28T06:15:14.259Z,1.80
2023-02-28T06:17:41.860Z,1.85
2023-02-28T06:20:09.062Z,2.00
2023-02-28T06:22:36.402Z,1.90
2023-02-28T06:25:03.795Z,1.85
2023-02-28T06:27:31.388Z,1.52
2023-02-28T06:29:57.653Z,2.00
2023-02-28T06:32:24.038Z,1.77
2023-02-28T06:34:50.838Z,1.90
2023-02-28T06:37:17.735Z,2.40
2023-02-28T06:39:44.205Z,2.50
2023-02-28T06:42:10.369Z,2.28
2023-02-28T06:44:36.656Z,1.95
2023-02-28T06:47:04.704Z,2.50
2023-02-28T06:49:32.740Z,2.47
2023-02-28T06:51:58.856Z,2.25
2023-02-28T06:54:26.164Z,2.08
2023-02-28T06:56:53.936Z,1.83
2023-02-28T06:59:20.426Z,2.00
2023-02-28T07:01:47.564Z,2.00
2023-02-28T07:04:13.757Z,1.40
2023-02-28T07:06:39.929Z,2.10
2023-02-28T07:09:06.061Z,2.25
2023-02-28T07:11:32.670Z,2.00
2023-02-28T07:13:58.919Z,2.05
2023-02-28T07:16:25.821Z,1.75
2023-02-28T07:18:55.605Z,1.98
2023-02-28T07:21:22.148Z,1.80
2023-02-28T07:23:48.244Z,1.80
2023-02-28T07:26:17.354Z,1.88
2023-02-28T07:28:45.501Z,1.70
2023-02-28T07:31:12.241Z,1.65
2023-02-28T07:33:38.971Z,1.50
2023-02-28T07:36:07.989Z,1.70
2023-02-28T07:38:35.920Z,1.90
2023-02-28T07:41:04.653Z,1.70
2023-02-28T07:43:32.027Z,1.95
2023-02-28T07:46:06.349Z,1.52
2023-02-28T07:48:32.976Z,2.00
2023-02-28T07:50:59.869Z,1.92
2023-02-28T07:53:27.356Z,1.38
2023-02-28T07:56:01.162Z,1.40
2023-02-28T07:58:28.487Z,1.48
2023-02-28T08:00:54.846Z,1.85
2023-02-28T08:03:22.768Z,1.75
2023-02-28T08:05:49.589Z,1.92
2023-02-28T08:08:17.066Z,2.50
2023-02-28T08:10:45.555Z,3.08
2023-02-28T08:13:11.668Z,2.67
2023-02-28T08:15:37.787Z,2.35
2023-02-28T08:18:04.438Z,2.22
2023-02-28T08:20:31.060Z,2.70
2023-02-28T08:22:57.202Z,2.15
2023-02-28T08:25:23.742Z,2.50
2023-02-28T08:27:52.554Z,1.95
2023-02-28T08:30:18.994Z,3.05
2023-02-28T08:32:45.150Z,2.88
2023-02-28T08:35:11.321Z,2.38
2023-02-28T08:37:37.488Z,2.88
2023-02-28T08:40:04.374Z,2.70
2023-02-28T08:42:32.642Z,2.40
2023-02-28T08:44:58.716Z,2.58
2023-02-28T08:47:24.804Z,2.83
2023-02-28T08:49:50.872Z,2.47
2023-02-28T08:52:17.021Z,2.47
2023-02-28T08:54:43.077Z,2.33
2023-02-28T08:57:09.198Z,2.38
2023-02-28T08:59:35.261Z,2.20
2023-02-28T09:02:01.398Z,2.53
2023-02-28T09:04:27.532Z,2.20
2023-02-28T09:06:54.050Z,2.47
2023-02-28T09:09:20.222Z,2.10
2023-02-28T09:11:46.282Z,2.28
2023-02-28T09:14:12.606Z,2.40
2023-02-28T09:16:38.891Z,2.22
2023-02-28T09:19:05.002Z,1.95
2023-02-28T09:21:31.577Z,2.10
2023-02-28T09:23:57.757Z,2.30
2023-02-28T09:26:26.469Z,2.00
2023-02-28T09:28:53.531Z,1.90
2023-02-28T09:31:24.083Z,2.00
2023-02-28T09:33:51.949Z,2.10
2023-02-28T09:36:18.879Z,2.10
2023-02-28T09:38:48.168Z,1.52
2023-02-28T09:41:21.731Z,2.03
2023-02-28T09:43:53.951Z,1.80
2023-02-28T09:46:28.430Z,1.58
2023-02-28T09:48:56.310Z,1.77
2023-02-28T09:51:49.029Z,1.73
2023-02-28T09:54:24.242Z,1.88
2023-02-28T09:57:05.770Z,1.83
2023-02-28T09:59:50.608Z,2.08
2023-02-28T10:02:44.053Z,1.80
2023-02-28T10:05:13.500Z,2.13
2023-02-28T10:08:02.018Z,1.90
2023-02-28T10:10:53.670Z,2.00
2023-02-28T10:13:30.038Z,1.85
2023-02-28T10:16:01.793Z,1.77
2023-02-28T10:18:51.041Z,1.92
2023-02-28T10:21:24.823Z,1.60
2023-02-28T10:23:59.560Z,1.45
2023-02-28T10:26:29.518Z,1.50
2023-02-28T10:28:55.801Z,1.60
2023-02-28T10:31:22.293Z,1.60
2023-02-28T10:33:49.957Z,1.63
2023-02-28T10:36:19.279Z,1.45
2023-02-28T10:38:46.859Z,1.55
2023-02-28T10:41:34.764Z,1.70
2023-02-28T10:44:33.104Z,1.70
2023-02-28T10:47:00.121Z,1.50
2023-02-28T10:49:30.863Z,1.33
2023-02-28T10:51:59.877Z,1.60
2023-02-28T10:54:35.624Z,1.50
2023-02-28T10:57:15.007Z,1.42
2023-02-28T10:59:41.110Z,1.70
2023-02-28T11:04:58.304Z,1.60
2023-02-28T11:07:27.855Z,1.60
2023-02-28T11:09:58.478Z,1.40
2023-02-28T11:12:30.455Z,1.60
2023-02-28T11:15:06.826Z,1.17
2023-02-28T11:17:33.279Z,1.40
2023-02-28T11:20:07.557Z,1.90
2023-02-28T11:22:40.380Z,1.77
2023-02-28T11:25:25.081Z,1.60
2023-02-28T11:27:54.321Z,1.70
2023-02-28T11:30:25.792Z,1.65
2023-02-28T11:32:51.957Z,1.50
2023-02-28T11:35:25.233Z,2.05
2023-02-28T11:37:51.874Z,2.00
2023-02-28T11:40:47.141Z,1.50
2023-02-28T11:43:24.960Z,1.40
2023-02-28T11:46:08.765Z,1.67
2023-02-28T11:48:58.644Z,1.48
2023-02-28T11:51:32.507Z,1.38
2023-02-28T11:54:04.453Z,1.48
2023-02-28T11:57:09.981Z,1.35
2023-02-28T11:59:39.069Z,1.52
2023-02-28T12:02:20.290Z,1.70
2023-02-28T12:05:11.380Z,1.45
2023-02-28T12:08:01.574Z,1.50
2023-02-28T12:10:40.361Z,1.40
2023-02-28T12:13:19.452Z,1.67
2023-02-28T12:16:00.792Z,2.42
2023-02-28T12:18:51.156Z,1.77
2023-02-28T12:21:52.124Z,1.92
2023-02-28T12:24:33.551Z,1.85
2023-02-28T12:27:05.932Z,1.95
2023-02-28T12:29:59.468Z,1.70
2023-02-28T12:32:35.661Z,1.88
2023-02-28T12:35:10.660Z,2.10
2023-02-28T12:38:03.599Z,1.85
2023-02-28T12:40:43.380Z,1.63
2023-02-28T12:43:13.544Z,1.58
2023-02-28T12:46:02.933Z,1.85
2023-02-28T12:48:42.811Z,1.85
2023-02-28T12:51:10.009Z,2.15
2023-02-28T12:53:42.925Z,1.60
2023-02-28T12:56:15.502Z,2.22
2023-02-28T12:58:43.661Z,2.00
2023-02-28T13:01:30.409Z,1.65
2023-02-28T13:04:34.658Z,2.10
2023-02-28T13:07:08.229Z,1.88
2023-02-28T13:09:34.719Z,2.30
2023-02-28T13:12:00.976Z,2.05
2023-02-28T13:14:32.786Z,2.28
2023-02-28T13:17:07.897Z,1.92
2023-02-28T13:19:40.751Z,2.08
2023-02-28T13:22:25.400Z,1.73
2023-02-28T13:24:56.136Z,2.25
2023-02-28T13:27:32.364Z,1.95
2023-02-28T13:29:58.701Z,1.60
2023-02-28T13:32:33.364Z,1.73
2023-02-28T13:34:59.403Z,1.35
2023-02-28T13:37:25.452Z,1.70
2023-02-28T13:40:00.158Z,1.67
2023-02-28T13:42:32.023Z,1.80
2023-02-28T13:45:04.306Z,1.60
2023-02-28T13:47:43.705Z,1.73
2023-02-28T13:50:18.769Z,1.40
2023-02-28T13:53:16.345Z,1.50
2023-02-28T13:56:00.485Z,1.55
2023-02-28T13:59:03.628Z,1.77
2023-02-28T14:01:35.499Z,1.50
2023-02-28T14:04:30.136Z,1.55
2023-02-28T14:06:58.624Z,1.63
2023-02-28T14:09:31.860Z,1.38
2023-02-28T14:12:18.039Z,1.40
2023-02-28T14:14:44.092Z,1.20
2023-02-28T14:17:17.559Z,1.55
2023-02-28T14:19:49.857Z,1.48
2023-02-28T14:22:44.056Z,1.30
2023-02-28T14:25:52.272Z,1.38
2023-02-28T14:28:51.208Z,1.20
2023-02-28T14:31:36.640Z,1.38
2023-02-28T14:34:50.530Z,1.27
2023-02-28T14:37:23.581Z,0.98
2023-02-28T14:39:50.044Z,1.17
2023-02-28T14:42:34.234Z,1.33
2023-02-28T14:45:00.936Z,1.48
2023-02-28T14:47:32.015Z,1.30
2023-02-28T14:49:59.715Z,1.15
2023-02-28T14:52:30.000Z,0.77
2023-02-28T14:55:02.293Z,1.15
2023-02-28T14:57:39.792Z,1.50
2023-02-28T15:00:17.399Z,1.85
2023-02-28T15:02:43.683Z,1.73
2023-02-28T15:05:18.489Z,2.03
2023-02-28T15:07:45.745Z,2.30
2023-02-28T15:10:12.268Z,2.00
2023-02-28T15:12:40.405Z,2.03
2023-02-28T15:15:08.138Z,2.40
2023-02-28T15:17:35.638Z,2.20
2023-02-28T15:20:02.259Z,2.50
2023-02-28T15:22:36.322Z,2.30
2023-02-28T15:25:04.604Z,2.38
2023-02-28T15:27:33.660Z,2.20
2023-02-28T15:30:07.026Z,2.38
2023-02-28T15:32:36.596Z,2.67
2023-02-28T15:35:28.560Z,2.47
2023-02-28T15:37:56.087Z,2.22
2023-02-28T15:40:32.233Z,2.83
2023-02-28T15:43:26.184Z,2.80
2023-02-28T15:46:13.967Z,2.88
2023-02-28T15:48:52.782Z,2.50
2023-02-28T15:51:24.812Z,2.75
2023-02-28T15:54:02.106Z,2.63
2023-02-28T15:56:31.834Z,2.55
2023-02-28T15:59:04.876Z,2.15
2023-02-28T16:01:38.823Z,2.15
2023-02-28T16:04:12.788Z,1.85
2023-02-28T16:06:44.786Z,2.25
2023-02-28T16:09:13.989Z,2.08
2023-02-28T16:11:43.995Z,1.60
2023-02-28T16:14:15.894Z,1.40
2023-02-28T16:16:52.055Z,1.63
2023-02-28T16:19:19.176Z,1.70
2023-02-28T16:21:45.766Z,1.70
2023-02-28T16:24:12.337Z,1.20
2023-02-28T16:26:45.884Z,1.40
2023-02-28T16:29:20.524Z,1.17
2023-02-28T16:31:46.688Z,1.25
2023-02-28T16:34:13.356Z,1.17
2023-02-28T16:36:40.438Z,1.25
2023-02-28T16:39:06.531Z,1.25
2023-02-28T16:41:34.789Z,1.17
2023-02-28T16:44:01.380Z,1.00
2023-02-28T16:46:33.478Z,1.10
2023-02-28T16:48:59.585Z,1.30
2023-02-28T16:51:25.734Z,1.00
2023-02-28T16:53:51.909Z,1.40
2023-02-28T16:56:21.332Z,1.00
2023-02-28T16:58:49.311Z,0.85
2023-02-28T17:01:16.386Z,0.88
2023-02-28T17:03:42.755Z,0.85
2023-02-28T17:06:22.513Z,0.70
2023-02-28T17:08:49.908Z,0.98
2023-02-28T17:11:16.607Z,1.00
2023-02-28T17:13:42.750Z,1.10
2023-02-28T17:16:18.823Z,0.98
2023-02-28T17:18:47.304Z,1.10
2023-02-28T17:21:15.493Z,1.60
2023-02-28T17:23:41.762Z,1.08
2023-02-28T17:26:20.292Z,0.93
2023-02-28T17:28:49.414Z,0.82
2023-02-28T17:31:15.836Z,1.05
2023-02-28T17:33:41.962Z,1.30
2023-02-28T17:36:15.274Z,1.10
2023-02-28T17:38:41.865Z,1.30
2023-02-28T17:41:10.904Z,1.10
2023-02-28T17:43:37.141Z,1.10
2023-02-28T17:46:05.400Z,1.17
2023-02-28T17:48:33.446Z,1.30
2023-02-28T17:50:59.621Z,1.27
2023-02-28T17:53:27.416Z,1.40
2023-02-28T17:55:53.500Z,1.55
2023-02-28T17:58:19.865Z,1.55
2023-02-28T18:00:47.394Z,1.65
2023-02-28T18:03:13.693Z,1.40
2023-02-28T18:05:40.824Z,1.60
2023-02-28T18:08:08.990Z,1.58
2023-02-28T18:10:35.101Z,1.50
2023-02-28T18:13:01.211Z,1.20
2023-02-28T18:15:27.324Z,1.33
2023-02-28T18:17:53.409Z,1.30
2023-02-28T18:20:19.833Z,1.75
2023-02-28T18:22:46.901Z,1.65
2023-02-28T18:25:16.208Z,1.30
2023-02-28T18:27:57.524Z,1.40
2023-02-28T18:30:26.509Z,1.60
2023-02-28T18:32:52.769Z,1.77
2023-02-28T18:35:33.977Z,1.63
2023-02-28T18:38:18.660Z,1.33
2023-02-28T18:40:53.393Z,1.88
2023-02-28T18:43:19.533Z,1.63
2023-02-28T18:45:45.853Z,1.50
2023-02-28T18:48:12.927Z,1.45
2023-02-28T18:50:39.047Z,1.50
2023-02-28T18:53:05.122Z,1.70
2023-02-28T18:55:32.074Z,1.50
2023-02-28T18:57:58.153Z,1.73
2023-02-28T19:00:25.147Z,1.60
2023-02-28T19:02:51.805Z,1.65
2023-02-28T19:05:19.197Z,1.90
2023-02-28T19:07:46.072Z,1.85
2023-02-28T19:10:13.030Z,1.70
2023-02-28T19:12:42.172Z,1.75
2023-02-28T19:15:09.730Z,1.58
2023-02-28T19:17:36.857Z,1.98
2023-02-28T19:20:04.591Z,1.60
2023-02-28T19:22:31.233Z,1.63
2023-02-28T19:24:57.365Z,1.70
2023-02-28T19:27:23.670Z,1.95
2023-02-28T19:29:52.176Z,1.90
2023-02-28T19:32:20.201Z,1.98
2023-02-28T19:34:46.958Z,1.92
2023-02-28T19:37:13.596Z,2.25
2023-02-28T19:39:42.671Z,1.83
2023-02-28T19:42:13.757Z,2.00
2023-02-28T19:44:40.574Z,1.63
2023-02-28T19:47:07.004Z,1.63
2023-02-28T19:49:33.257Z,1.85
2023-02-28T19:51:59.667Z,2.00
2023-02-28T19:54:26.833Z,1.80
2023-02-28T19:56:57.769Z,2.08
2023-02-28T19:59:35.753Z,2.00
2023-02-28T20:02:05.772Z,2.00
2023-02-28T20:04:31.918Z,1.70
2023-02-28T20:06:58.085Z,2.15
2023-02-28T20:09:24.175Z,2.20
2023-02-28T20:11:50.277Z,2.40
2023-02-28T20:14:17.159Z,2.03
2023-02-28T20:16:44.936Z,2.00
2023-02-28T20:19:11.170Z,1.92
2023-02-28T20:21:37.253Z,2.20
2023-02-28T20:24:03.510Z,1.98
2023-02-28T20:26:29.782Z,2.30
2023-02-28T20:28:56.067Z,2.15
2023-02-28T20:31:24.815Z,2.13
2023-02-28T20:33:52.132Z,2.25
2023-02-28T20:36:22.777Z,2.50
2023-02-28T20:38:50.976Z,2.20
2023-02-28T20:41:17.273Z,2.22
2023-02-28T20:43:43.740Z,2.13
2023-02-28T20:46:10.386Z,2.13
2023-02-28T20:48:37.188Z,2.58
2023-02-28T20:51:04.485Z,2.53
2023-02-28T20:53:32.157Z,2.42
2023-02-28T20:56:00.707Z,2.28
2023-02-28T20:58:29.535Z,2.42
2023-02-28T21:01:16.840Z,2.60
2023-02-28T21:03:47.571Z,2.72
2023-02-28T21:06:15.000Z,2.53
2023-02-28T21:08:41.489Z,2.05
2023-02-28T21:11:14.140Z,2.55
2023-02-28T21:13:47.745Z,2.55
2023-02-28T21:16:16.750Z,2.40
2023-02-28T21:18:43.158Z,2.53
2023-02-28T21:21:13.535Z,2.85
2023-02-28T21:23:41.034Z,2.28
2023-02-28T21:26:09.296Z,2.05
2023-02-28T21:28:36.357Z,2.33
2023-02-28T21:31:05.338Z,2.70
2023-02-28T21:33:32.128Z,2.70
2023-02-28T21:36:07.038Z,2.92
2023-02-28T21:38:34.013Z,2.58
2023-02-28T21:41:23.613Z,3.00
2023-02-28T21:43:50.333Z,2.75
2023-02-28T21:46:19.068Z,3.03
2023-02-28T21:48:49.213Z,2.50
2023-02-28T21:51:27.530Z,2.80
2023-02-28T21:53:53.754Z,2.53
2023-02-28T21:56:23.719Z,2.53
2023-02-28T21:58:50.723Z,3.00
2023-02-28T22:01:21.511Z,2.70
2023-02-28T22:03:48.759Z,2.53
2023-02-28T22:06:21.218Z,2.70
2023-02-28T22:08:51.293Z,2.78
2023-02-28T22:11:17.870Z,2.42
2023-02-28T22:13:44.072Z,2.72
2023-02-28T22:16:17.574Z,2.70
2023-02-28T22:18:44.225Z,2.75
2023-02-28T22:21:11.499Z,2.95
2023-02-28T22:23:38.521Z,3.13
2023-02-28T22:26:07.170Z,3.20
2023-02-28T22:28:33.712Z,2.90
2023-02-28T22:31:00.681Z,3.05
2023-02-28T22:33:27.613Z,2.90
2023-02-28T22:35:54.139Z,2.50
2023-02-28T22:38:20.301Z,3.10
2023-02-28T22:40:46.803Z,2.53
2023-02-28T22:43:12.942Z,2.55
2023-02-28T22:45:40.420Z,3.08
2023-02-28T22:48:07.669Z,2.78
2023-02-28T22:50:34.694Z,2.88
2023-02-28T22:53:01.207Z,2.88
2023-02-28T22:55:27.492Z,2.63
2023-02-28T22:57:53.604Z,2.90
2023-02-28T23:00:20.008Z,2.42
2023-02-28T23:02:47.161Z,2.97
2023-02-28T23:05:13.936Z,3.00
2023-02-28T23:07:41.239Z,2.72
2023-02-28T23:10:13.729Z,3.15
2023-02-28T23:12:49.834Z,2.92
2023-02-28T23:15:17.516Z,2.90
2023-02-28T23:17:44.311Z,2.95
2023-02-28T23:20:19.002Z,2.53
2023-02-28T23:22:49.706Z,2.50
2023-02-28T23:25:21.145Z,3.10
2023-02-28T23:27:47.732Z,3.05
2023-02-28T23:30:14.667Z,2.42
2023-02-28T23:32:41.174Z,2.40
2023-02-28T23:35:09.229Z,2.55
2023-02-28T23:37:37.192Z,2.67
2023-02-28T23:40:04.863Z,2.83
2023-02-28T23:42:31.200Z,2.70
2023-02-28T23:44:57.299Z,2.97
2023-02-28T23:47:24.236Z,2.72
2023-02-28T23:49:50.378Z,2.58
2023-02-28T23:52:16.436Z,2.67
2023-02-28T23:54:42.561Z,2.80
2023-02-28T23:57:08.696Z,2.60
2023-02-28T23:59:35.076Z,2.83
